Time;durP1;ratioP1;P1;durP2;ratioP2;P2;SDS_P1;SDS_P2;PMS_P1;PMS_P2;Temp;Humidity;BMP_temperature;BMP_pressure;BME280_temperature;BME280_humidity;BME280_pressure;Samples;Min_cycle;Max_cycle;Signal;HPM_P1;HPM_P2
2023/04/04 00:00:14;;;;;;;1.55;1.17;;;;;;;4.84;78.16;103069.41;4978643;28;20045;-86
2023/04/04 00:02:39;;;;;;;1.98;1.52;;;;;;;4.82;78.38;103066.81;4978098;28;20026;-86
2023/04/04 00:05:06;;;;;;;1.13;1.02;;;;;;;4.81;78.47;103068.50;4978606;28;20186;-86
2023/04/04 00:07:32;;;;;;;2.03;1.58;;;;;;;4.79;78.36;103066.75;4977960;28;20038;-86
2023/04/04 00:09:57;;;;;;;1.65;1.40;;;;;;;4.77;78.22;103069.31;4978674;28;20037;-86
2023/04/04 00:12:23;;;;;;;2.10;1.65;;;;;;;4.75;78.18;103065.81;4961099;28;20034;-86
2023/04/04 00:14:49;;;;;;;2.65;1.65;;;;;;;4.73;77.82;103064.00;4976916;28;20113;-86
2023/04/04 00:17:15;;;;;;;1.85;1.52;;;;;;;4.69;77.74;103059.63;4980889;28;20022;-86
2023/04/04 00:19:40;;;;;;;2.25;1.73;;;;;;;4.67;77.78;103064.78;4980341;28;20182;-86
2023/04/04 00:22:06;;;;;;;1.50;1.40;;;;;;;4.65;77.80;103063.00;4980514;28;20046;-86
2023/04/04 00:24:32;;;;;;;3.00;1.52;;;;;;;4.62;77.70;103056.03;4980474;28;20050;-86
2023/04/04 00:26:58;;;;;;;2.15;1.65;;;;;;;4.58;77.55;103049.91;4964394;28;20058;-86
2023/04/04 00:29:23;;;;;;;2.10;1.60;;;;;;;4.54;77.47;103047.22;4980349;28;20274;-86
2023/04/04 00:31:48;;;;;;;1.73;1.52;;;;;;;4.52;77.37;103052.38;4981173;28;20042;-86
2023/04/04 00:34:14;;;;;;;1.60;1.50;;;;;;;4.48;77.19;103047.97;4964015;28;20035;-86
2023/04/04 00:36:39;;;;;;;2.55;1.92;;;;;;;4.45;77.39;103047.91;4980986;28;20041;-86
2023/04/04 00:39:05;;;;;;;1.70;1.50;;;;;;;4.41;77.10;103046.97;4964530;28;20350;-86
2023/04/04 00:41:30;;;;;;;2.92;2.00;;;;;;;4.39;77.11;103051.25;4981725;28;20106;-86
2023/04/04 00:43:56;;;;;;;2.28;1.80;;;;;;;4.37;77.36;103039.09;4981160;28;20286;-86
2023/04/04 00:46:22;;;;;;;2.25;1.75;;;;;;;4.36;77.54;103043.41;4964002;28;20034;-86
2023/04/04 00:48:48;;;;;;;2.85;2.00;;;;;;;4.34;77.46;103036.44;4980827;28;20034;-86
2023/04/04 00:51:13;;;;;;;1.75;1.63;;;;;;;4.32;77.59;103039.00;4981015;28;20034;-86
2023/04/04 00:53:40;;;;;;;4.65;2.03;;;;;;;4.32;77.52;103053.69;4979312;28;20058;-86
2023/04/04 00:56:08;;;;;;;2.20;2.00;;;;;;;4.29;77.57;103045.84;4981762;28;20068;-85
2023/04/04 00:58:33;;;;;;;1.80;1.70;;;;;;;4.26;77.57;103041.47;4981486;28;20319;-86
2023/04/04 01:04:21;;;;;;;2.35;1.80;;;;;;;4.20;77.38;103046.50;4964101;28;20349;-86
2023/04/04 01:06:46;;;;;;;2.10;1.90;;;;;;;4.18;77.22;103050.78;4963424;29;20382;-86
2023/04/04 01:09:12;;;;;;;1.83;1.73;;;;;;;4.14;77.31;103036.03;4960103;29;20039;-86
2023/04/04 01:11:37;;;;;;;2.08;1.70;;;;;;;4.11;77.48;103038.53;4944197;29;20037;-86
2023/04/04 01:14:03;;;;;;;2.13;1.92;;;;;;;4.09;77.65;103041.09;4961740;28;20054;-86
2023/04/04 01:16:28;;;;;;;2.47;2.10;;;;;;;4.08;77.92;103043.69;4960224;29;20043;-86
2023/04/04 01:18:55;;;;;;;1.88;1.67;;;;;;;4.07;78.13;103035.00;4944270;29;20050;-86
2023/04/04 01:21:22;;;;;;;1.80;1.70;;;;;;;4.08;78.23;103035.91;4961178;28;20045;-86
2023/04/04 01:24:02;;;;;;;3.15;1.70;;;;;;;4.02;78.16;103027.16;4944001;29;20338;-86
2023/04/04 01:26:28;;;;;;;1.98;1.55;;;;;;;4.02;78.34;103026.25;4959774;28;20075;-86
2023/04/04 01:28:55;;;;;;;1.83;1.63;;;;;;;4.02;78.46;103026.25;4960991;28;20121;-86
2023/04/04 01:31:26;;;;;;;1.30;1.20;;;;;;;4.03;78.70;103033.19;4944176;29;20039;-86
2023/04/04 01:34:12;;;;;;;1.65;1.50;;;;;;;4.01;78.87;103027.09;4960918;28;20327;-86
2023/04/04 01:36:54;;;;;;;1.55;1.45;;;;;;;4.01;79.17;103022.78;4967452;28;20030;-86
2023/04/04 01:39:31;;;;;;;2.17;1.75;;;;;;;4.01;79.11;103025.38;4979304;28;20038;-86
2023/04/04 01:42:00;;;;;;;1.75;1.65;;;;;;;4.00;79.07;103027.94;4980607;28;20229;-85
2023/04/04 01:44:25;;;;;;;1.77;1.50;;;;;;;3.97;79.25;103014.94;4980425;28;20034;-86
2023/04/04 01:46:54;;;;;;;1.75;1.65;;;;;;;3.96;79.29;103023.53;4979996;28;20221;-86
2023/04/04 01:49:20;;;;;;;2.05;1.80;;;;;;;3.95;79.28;103022.66;4980356;28;20469;-85
2023/04/04 01:51:45;;;;;;;2.55;1.75;;;;;;;3.92;79.11;103024.31;4962828;28;20038;-86
2023/04/04 01:54:11;;;;;;;1.65;1.48;;;;;;;3.90;79.32;103024.28;4980051;28;20042;-86
2023/04/04 01:56:36;;;;;;;2.05;1.95;;;;;;;3.90;79.46;103026.00;4978655;28;20042;-86
2023/04/04 01:59:02;;;;;;;1.85;1.65;;;;;;;3.89;79.61;103032.88;4978964;28;20039;-85
2023/04/04 02:01:28;;;;;;;3.13;1.80;;;;;;;3.87;79.92;103026.78;4980310;28;20385;-86
2023/04/04 02:03:53;;;;;;;2.00;1.80;;;;;;;3.84;79.77;103022.44;4980291;28;20048;-86
2023/04/04 02:06:18;;;;;;;1.67;1.58;;;;;;;3.84;79.89;103029.34;4962299;28;20069;-86
2023/04/04 02:08:44;;;;;;;1.60;1.50;;;;;;;3.82;79.95;103028.41;4962366;28;20039;-85
2023/04/04 02:11:09;;;;;;;1.70;1.60;;;;;;;3.83;79.90;103030.16;4978593;28;20042;-85
2023/04/04 02:13:40;;;;;;;1.63;1.52;;;;;;;3.80;80.23;103030.09;4978353;28;20057;-85
2023/04/04 02:16:05;;;;;;;2.08;1.88;;;;;;;3.81;80.31;103044.81;4979641;28;20039;-85
2023/04/04 02:18:31;;;;;;;1.95;1.83;;;;;;;3.78;80.51;103030.06;4979719;28;20039;-85
2023/04/04 02:20:56;;;;;;;1.55;1.45;;;;;;;3.79;80.44;103041.31;4961731;28;20031;-85
2023/04/04 02:23:22;;;;;;;2.22;2.03;;;;;;;3.78;80.62;103040.44;4962128;28;20050;-86
2023/04/04 02:25:49;;;;;;;1.58;1.48;;;;;;;3.78;80.70;103037.84;4978035;28;20077;-86
2023/04/04 02:28:15;;;;;;;2.05;1.63;;;;;;;3.78;80.68;103044.72;4979815;28;20102;-86
2023/04/04 02:30:41;;;;;;;1.52;1.42;;;;;;;3.77;80.83;103046.47;4979433;28;20110;-85
2023/04/04 02:33:07;;;;;;;2.08;1.52;;;;;;;3.76;81.05;103049.00;4979274;28;20118;-85
2023/04/04 02:35:32;;;;;;;1.50;1.40;;;;;;;3.74;80.98;103041.19;4979910;28;20050;-85
2023/04/04 02:37:58;;;;;;;1.75;1.63;;;;;;;3.74;81.20;103046.38;4978081;28;20066;-84
2023/04/04 02:40:23;;;;;;;1.88;1.67;;;;;;;3.72;81.08;103037.69;4979555;28;20034;-85
2023/04/04 02:42:48;;;;;;;3.67;2.10;;;;;;;3.71;81.08;103035.97;4977953;28;20035;-85
2023/04/04 02:45:14;;;;;;;3.45;2.00;;;;;;;3.71;81.37;103032.47;4978369;28;20053;-85
2023/04/04 02:47:41;;;;;;;3.33;2.08;;;;;;;3.69;81.42;103031.56;4978042;28;20094;-84
2023/04/04 02:50:07;;;;;;;1.73;1.63;;;;;;;3.68;81.48;103022.94;4979813;28;20042;-85
2023/04/04 02:52:33;;;;;;;2.00;1.80;;;;;;;3.68;81.53;103014.28;4978004;28;20342;-85
2023/04/04 02:54:58;;;;;;;1.90;1.80;;;;;;;3.67;81.58;103013.38;4978180;28;20033;-85
2023/04/04 02:57:23;;;;;;;2.17;1.98;;;;;;;3.65;81.62;103004.69;4978391;28;20330;-85
2023/04/04 02:59:49;;;;;;;2.22;1.60;;;;;;;3.64;81.79;103008.16;4961708;28;20325;-85
2023/04/04 03:02:14;;;;;;;2.35;1.80;;;;;;;3.63;81.87;103006.38;4961799;28;20343;-85
2023/04/04 03:04:40;;;;;;;2.42;1.77;;;;;;;3.61;82.01;102998.56;4979264;28;20049;-86
2023/04/04 03:07:05;;;;;;;1.85;1.75;;;;;;;3.60;81.98;102991.66;4972672;28;20035;-85
2023/04/04 03:09:31;;;;;;;2.22;2.03;;;;;;;3.60;81.93;103001.13;4960502;28;20039;-85
2023/04/04 03:11:56;;;;;;;1.90;1.65;;;;;;;3.56;81.92;103002.78;4958677;29;20420;-85
2023/04/04 03:14:22;;;;;;;1.70;1.60;;;;;;;3.55;81.91;103002.75;4960443;28;20342;-85
2023/04/04 03:16:51;;;;;;;2.03;1.83;;;;;;;3.52;81.84;103003.53;4958538;29;20230;-85
2023/04/04 03:19:16;;;;;;;;;;;;;;;3.49;81.74;103003.47;4960395;28;20041;-84
2023/04/04 03:21:41;;;;;;;2.78;1.88;;;;;;;3.47;81.48;103007.75;4959229;29;20217;-85
2023/04/04 03:24:07;;;;;;;2.17;1.98;;;;;;;3.43;81.33;103011.97;4958776;29;20326;-85
2023/04/04 03:26:32;;;;;;;2.70;1.80;;;;;;;3.39;81.51;103012.75;4942825;29;20496;-85
2023/04/04 03:28:58;;;;;;;1.92;1.83;;;;;;;3.38;81.23;103017.88;4960239;28;20043;-84
2023/04/04 03:31:23;;;;;;;2.17;1.80;;;;;;;3.34;81.14;103018.66;4958452;29;20397;-84
2023/04/04 03:33:49;;;;;;;1.90;1.80;;;;;;;3.30;81.13;103022.03;4942233;29;20031;-85
2023/04/04 03:36:14;;;;;;;2.17;1.88;;;;;;;3.25;81.13;103020.16;4958689;29;20291;-84
2023/04/04 03:38:40;;;;;;;2.20;2.03;;;;;;;3.23;81.00;103020.97;4957878;29;20043;-85
2023/04/04 03:41:06;;;;;;;1.83;1.73;;;;;;;3.20;80.88;103031.25;4960465;28;20095;-84
2023/04/04 03:43:32;;;;;;;1.70;1.60;;;;;;;3.16;80.86;103032.03;4958331;29;20042;-84
2023/04/04 03:46:02;;;;;;;2.00;1.80;;;;;;;3.12;80.76;103028.47;4959773;28;20114;-84
2023/04/04 03:48:28;;;;;;;1.70;1.60;;;;;;;3.10;81.03;103026.69;4958583;29;20039;-84
2023/04/04 03:50:54;;;;;;;2.83;1.83;;;;;;;3.08;80.76;103027.53;4960574;28;20035;-85
2023/04/04 03:53:20;;;;;;;2.30;1.60;;;;;;;3.05;80.87;103014.50;4962080;29;20038;-84
2023/04/04 03:55:45;;;;;;;2.30;1.77;;;;;;;3.03;80.68;103020.47;4962863;29;20035;-84
2023/04/04 03:58:10;;;;;;;2.08;1.88;;;;;;;3.00;80.82;103021.28;4963273;28;20234;-84
2023/04/04 04:00:36;;;;;;;2.33;2.13;;;;;;;2.96;80.73;103016.84;4961809;29;20321;-84
2023/04/04 04:03:01;;;;;;;2.53;1.98;;;;;;;2.95;80.74;103016.81;4962087;29;20049;-85
2023/04/04 04:05:27;;;;;;;2.00;1.90;;;;;;;2.93;81.16;103013.31;4962035;29;20334;-85
2023/04/04 04:07:52;;;;;;;2.08;1.92;;;;;;;2.90;80.73;103019.28;4961645;29;20042;-85
2023/04/04 04:10:18;;;;;;;1.70;1.60;;;;;;;2.88;80.96;103014.06;4962002;29;20042;-85
2023/04/04 04:12:43;;;;;;;2.10;1.90;;;;;;;2.86;81.01;103015.75;4961471;29;20258;-84
2023/04/04 04:15:09;;;;;;;2.05;1.88;;;;;;;2.85;81.05;103018.28;4961767;29;20055;-84
2023/04/04 04:17:38;;;;;;;2.22;2.03;;;;;;;2.84;81.27;103016.56;4961611;29;20035;-85
2023/04/04 04:20:05;;;;;;;1.70;1.60;;;;;;;2.83;81.15;103027.72;4966448;28;20054;-84
2023/04/04 04:22:31;;;;;;;1.58;1.48;;;;;;;2.82;81.42;103015.63;4958723;29;20027;-84
2023/04/04 04:24:56;;;;;;;2.22;1.70;;;;;;;2.80;81.51;103018.19;4962665;28;20401;-85
2023/04/04 04:27:22;;;;;;;2.28;1.73;;;;;;;2.80;81.63;103017.28;4977476;28;20342;-85
2023/04/04 04:29:48;;;;;;;2.20;2.00;;;;;;;2.78;81.61;103021.56;4962491;28;20053;-85
2023/04/04 04:32:17;;;;;;;2.15;2.00;;;;;;;2.77;81.71;103012.91;4961333;29;20098;-84
2023/04/04 04:34:43;;;;;;;2.50;2.30;;;;;;;2.76;81.48;103016.34;4962373;29;20346;-84
2023/04/04 04:37:08;;;;;;;2.10;1.90;;;;;;;2.75;81.83;103016.28;4962634;28;20073;-84
2023/04/04 04:39:34;;;;;;;3.03;2.28;;;;;;;2.74;81.82;103022.31;4960759;29;20110;-85
2023/04/04 04:42:00;;;;;;;2.15;2.05;;;;;;;2.72;81.85;103024.84;4962742;28;20323;-84
2023/04/04 04:44:25;;;;;;;2.05;1.95;;;;;;;2.71;81.87;103022.22;4962419;28;20043;-85
2023/04/04 04:46:51;;;;;;;2.60;2.33;;;;;;;2.67;81.80;103027.34;4961145;29;20042;-84
2023/04/04 04:49:16;;;;;;;2.40;2.20;;;;;;;2.66;81.93;103029.88;4977010;28;20043;-85
2023/04/04 04:51:42;;;;;;;2.30;2.10;;;;;;;2.63;81.72;103016.84;4976839;28;20381;-84
2023/04/04 04:54:07;;;;;;;2.65;2.45;;;;;;;2.61;81.75;103032.31;4962366;28;20031;-84
2023/04/04 04:56:33;;;;;;;2.30;2.10;;;;;;;2.60;81.90;103038.34;4961808;28;20353;-84
2023/04/04 04:58:58;;;;;;;2.33;1.95;;;;;;;2.59;81.91;103028.81;4962145;28;20043;-84
2023/04/04 05:01:24;;;;;;;2.47;2.08;;;;;;;2.56;81.97;103031.31;4976178;28;20043;-84
2023/04/04 05:03:49;;;;;;;2.22;1.95;;;;;;;2.56;81.91;103035.63;4962264;28;20047;-84
2023/04/04 05:06:15;;;;;;;2.35;2.15;;;;;;;2.53;81.94;103025.19;4962260;28;20058;-85
2023/04/04 05:08:40;;;;;;;2.35;2.15;;;;;;;2.55;82.15;103021.81;4976544;28;20059;-84
2023/04/04 05:11:05;;;;;;;2.03;1.92;;;;;;;2.56;82.27;103022.69;4960532;29;20070;-86
2023/04/04 05:13:31;;;;;;;2.17;2.08;;;;;;;2.55;82.30;103031.25;4976493;28;20130;-85
2023/04/04 05:15:57;;;;;;;1.92;1.83;;;;;;;2.52;82.18;103026.91;4961626;28;20059;-86
2023/04/04 05:18:22;;;;;;;2.40;2.20;;;;;;;2.50;82.34;103031.16;4961953;28;20086;-85
2023/04/04 05:20:53;;;;;;;2.38;2.17;;;;;;;2.48;82.47;103038.00;4964340;28;20416;-86
2023/04/04 05:23:19;;;;;;;2.00;1.80;;;;;;;2.46;82.63;103037.09;4963683;28;20027;-86
2023/04/04 05:25:48;;;;;;;2.67;2.33;;;;;;;2.43;82.64;103042.16;4978971;28;20065;-85
2023/04/04 05:28:13;;;;;;;2.10;1.90;;;;;;;2.42;82.69;103046.47;4972603;28;20042;-85
2023/04/04 05:30:53;;;;;;;2.33;2.05;;;;;;;2.41;82.69;103038.66;4981496;28;20428;-85
2023/04/04 05:33:19;;;;;;;3.17;2.40;;;;;;;2.40;82.90;103047.22;4977734;28;20330;-85
2023/04/04 05:35:45;;;;;;;2.40;2.20;;;;;;;2.38;83.09;103052.34;4979340;28;20031;-85
2023/04/04 05:38:10;;;;;;;2.80;2.60;;;;;;;2.38;83.14;103048.91;4963195;28;20066;-85
2023/04/04 05:40:36;;;;;;;4.32;2.75;;;;;;;2.37;83.18;103052.34;4962744;28;20122;-85
2023/04/04 05:43:26;;;;;;;2.40;2.20;;;;;;;2.36;83.22;103040.22;4980661;28;20354;-85
2023/04/04 05:46:03;;;;;;;3.03;2.75;;;;;;;2.34;83.33;103047.06;4965905;28;20038;-85
2023/04/04 05:48:29;;;;;;;3.05;2.40;;;;;;;2.33;83.35;103041.03;4979641;28;20041;-85
2023/04/04 05:50:54;;;;;;;3.75;2.33;;;;;;;2.34;83.48;103047.06;4963040;28;20046;-85
2023/04/04 05:53:20;;;;;;;2.33;2.13;;;;;;;2.33;83.75;103046.22;4962927;28;20101;-86
2023/04/04 05:55:46;;;;;;;3.35;2.50;;;;;;;2.34;83.75;103047.06;4962589;28;20395;-86
2023/04/04 05:58:11;;;;;;;3.00;2.70;;;;;;;2.32;83.89;103047.03;4964007;28;20034;-85
2023/04/04 06:00:37;;;;;;;3.30;2.97;;;;;;;2.32;84.00;103044.44;4978626;28;20027;-86
2023/04/04 06:03:02;;;;;;;3.20;2.90;;;;;;;2.33;84.13;103045.31;4980533;28;20302;-85
2023/04/04 06:05:27;;;;;;;3.53;3.15;;;;;;;2.33;84.18;103041.03;4962907;28;20349;-85
2023/04/04 06:07:53;;;;;;;3.53;2.75;;;;;;;2.34;84.42;103042.78;4978407;28;20049;-85
2023/04/04 06:10:18;;;;;;;3.10;2.80;;;;;;;2.35;84.37;103049.72;4978990;28;20054;-85
2023/04/04 06:12:44;;;;;;;4.93;2.85;;;;;;;2.36;84.31;103048.84;4962316;28;20035;-85
2023/04/04 06:15:10;;;;;;;3.45;2.97;;;;;;;2.37;84.20;103050.63;4978659;28;20118;-86
2023/04/04 06:17:35;;;;;;;3.28;2.97;;;;;;;2.37;84.52;103037.69;4961869;28;20027;-85
2023/04/04 06:20:00;;;;;;;3.90;3.50;;;;;;;2.39;84.67;103040.34;4962842;28;20042;-85
2023/04/04 06:22:26;;;;;;;3.80;3.50;;;;;;;2.41;84.66;103042.13;4978967;28;20261;-85
2023/04/04 06:24:51;;;;;;;3.45;3.15;;;;;;;2.43;84.88;103042.16;4978264;28;20420;-85
2023/04/04 06:27:16;;;;;;;3.78;3.45;;;;;;;2.43;85.07;103047.34;4979001;28;20119;-85
2023/04/04 06:29:42;;;;;;;3.53;3.13;;;;;;;2.43;85.23;103044.75;4978547;28;20245;-85
2023/04/04 06:32:08;;;;;;;6.13;3.40;;;;;;;2.45;85.20;103050.84;4961033;28;20065;-85
2023/04/04 06:34:33;;;;;;;3.97;3.45;;;;;;;2.46;85.24;103050.88;4976782;28;20411;-85
2023/04/04 06:36:59;;;;;;;4.15;3.22;;;;;;;2.48;85.61;103054.38;4960987;28;20058;-85
2023/04/04 06:39:24;;;;;;;3.85;3.33;;;;;;;2.52;85.67;103057.06;4971544;28;20031;-85
2023/04/04 06:41:50;;;;;;;4.63;4.13;;;;;;;2.52;85.97;103045.00;4970123;28;20345;-85
2023/04/04 06:44:15;;;;;;;4.80;3.90;;;;;;;2.54;86.13;103048.50;4978497;28;20314;-85
2023/04/04 06:46:41;;;;;;;5.20;4.05;;;;;;;2.57;86.32;103039.97;4964142;28;20043;-85
2023/04/04 06:49:06;;;;;;;4.30;3.90;;;;;;;2.59;86.57;103041.75;4949347;28;20102;-85
2023/04/04 06:51:35;;;;;;;5.70;3.90;;;;;;;2.63;86.67;103045.31;4953552;28;20101;-85
2023/04/04 06:54:01;;;;;;;4.30;4.00;;;;;;;2.64;87.11;103036.72;4978776;28;20038;-85
2023/04/04 06:56:27;;;;;;;5.20;4.22;;;;;;;2.66;87.17;103038.50;4950409;28;20031;-85
2023/04/04 06:58:52;;;;;;;4.85;3.85;;;;;;;2.69;87.59;103043.78;4950183;28;20049;-85
2023/04/04 07:01:17;;;;;;;5.22;3.88;;;;;;;2.74;87.85;103045.59;4964538;28;20217;-85
2023/04/04 07:03:43;;;;;;;6.50;4.50;;;;;;;2.76;88.01;103049.09;4951077;28;20043;-85
2023/04/04 07:06:09;;;;;;;4.85;3.92;;;;;;;2.79;88.23;103052.66;4978582;28;20042;-85
2023/04/04 07:08:35;;;;;;;4.45;4.05;;;;;;;2.81;88.57;103048.38;4978403;28;20033;-85
2023/04/04 07:11:01;;;;;;;5.03;4.45;;;;;;;2.84;88.93;103058.84;4976683;28;20034;-84
2023/04/04 07:13:27;;;;;;;5.28;4.20;;;;;;;2.87;88.90;103060.63;4976924;28;20086;-85
2023/04/04 07:15:52;;;;;;;3.88;3.58;;;;;;;2.89;89.28;103053.75;4973942;28;20361;-85
2023/04/04 07:18:18;;;;;;;5.30;4.63;;;;;;;2.93;89.36;103065.06;4972839;28;20034;-85
2023/04/04 07:20:47;;;;;;;4.40;4.00;;;;;;;2.96;89.57;103062.56;4977050;28;20049;-85
2023/04/04 07:23:14;;;;;;;;;;;;;;;2.98;89.64;103061.78;4979425;28;20329;-85
2023/04/04 07:25:40;;;;;;;4.35;3.85;;;;;;;3.00;89.96;103054.94;4980322;28;19913;-85
2023/04/04 07:28:05;;;;;;;4.88;3.88;;;;;;;3.01;89.79;103056.69;4980174;28;20356;-84
2023/04/04 07:30:32;;;;;;;5.22;4.10;;;;;;;3.04;89.94;103064.53;4963796;28;20030;-85
2023/04/04 07:33:01;;;;;;;6.53;4.28;;;;;;;3.08;90.16;103068.09;4978508;28;20045;-85
2023/04/04 07:35:27;;;;;;;4.43;4.03;;;;;;;3.09;90.27;103069.81;4975482;28;20286;-85
2023/04/04 07:37:53;;;;;;;5.07;4.10;;;;;;;3.10;90.45;103058.63;4977661;28;20058;-84
2023/04/04 07:40:19;;;;;;;4.05;3.75;;;;;;;3.15;90.52;103059.63;4965414;28;20042;-84
2023/04/04 07:42:46;;;;;;;5.45;3.95;;;;;;;3.18;90.83;103057.09;4961716;28;20077;-85
2023/04/04 07:45:12;;;;;;;4.65;3.78;;;;;;;3.22;90.84;103066.72;4980953;28;20026;-85
2023/04/04 07:47:42;;;;;;;4.78;3.95;;;;;;;3.24;90.71;103059.88;4964883;28;20346;-85
2023/04/04 07:50:08;;;;;;;7.68;4.68;;;;;;;3.25;90.78;103064.19;4976832;28;20023;-85
2023/04/04 07:52:33;;;;;;;6.45;4.25;;;;;;;3.29;90.60;103061.69;4960727;28;20065;-84
2023/04/04 07:55:00;;;;;;;4.20;3.80;;;;;;;3.32;90.39;103061.78;4960046;28;20207;-84
2023/04/04 07:57:25;;;;;;;6.00;4.05;;;;;;;3.34;90.33;103060.09;4962677;28;20342;-85
2023/04/04 07:59:51;;;;;;;7.30;4.50;;;;;;;3.34;89.71;103055.78;4978368;28;20117;-85
2023/04/04 08:02:16;;;;;;;5.50;4.55;;;;;;;3.35;89.34;103054.09;4979723;28;20495;-85
2023/04/04 08:04:42;;;;;;;4.60;3.97;;;;;;;3.40;89.25;103060.25;4978740;28;20034;-85
2023/04/04 08:07:07;;;;;;;3.72;3.42;;;;;;;3.42;88.75;103053.38;4963260;28;20041;-85
2023/04/04 08:09:35;;;;;;;6.25;4.03;;;;;;;3.43;88.45;103049.97;4970626;28;20042;-85
2023/04/04 08:12:01;;;;;;;4.90;4.40;;;;;;;3.45;87.22;103043.97;4958565;28;20366;-85
2023/04/04 08:14:27;;;;;;;4.47;4.07;;;;;;;3.49;87.12;103044.06;4980376;28;20069;-85
2023/04/04 08:16:52;;;;;;;4.30;3.92;;;;;;;3.53;87.39;103039.00;4987753;28;20218;-85
2023/04/04 08:19:18;;;;;;;6.35;4.32;;;;;;;3.54;86.04;103047.63;4976102;28;20046;-85
2023/04/04 08:21:44;;;;;;;4.45;3.60;;;;;;;3.55;85.32;103041.63;4970556;28;20072;-85
2023/04/04 08:24:11;;;;;;;3.63;3.33;;;;;;;3.57;84.72;103038.22;4980813;28;20109;-85
2023/04/04 08:26:36;;;;;;;4.45;3.60;;;;;;;3.61;85.01;103034.84;4980330;28;20058;-85
2023/04/04 08:29:01;;;;;;;4.03;3.22;;;;;;;3.64;84.98;103047.88;4982566;28;20046;-85
2023/04/04 08:31:28;;;;;;;3.33;3.03;;;;;;;3.65;84.20;103041.84;4998123;28;20042;-85
2023/04/04 08:33:54;;;;;;;3.63;2.30;;;;;;;3.66;82.57;103047.94;4990565;28;20061;-85
2023/04/04 08:36:20;;;;;;;3.47;3.17;;;;;;;3.70;83.35;103044.56;4993593;28;20303;-85
2023/04/04 08:38:45;;;;;;;4.40;2.90;;;;;;;3.74;83.21;103045.50;4984368;28;20062;-85
2023/04/04 08:41:11;;;;;;;2.92;2.35;;;;;;;3.74;82.70;103041.19;4980540;28;20030;-85
2023/04/04 08:43:40;;;;;;;3.45;3.15;;;;;;;3.78;82.54;103042.13;4981575;28;20034;-85
2023/04/04 08:46:08;;;;;;;4.27;3.60;;;;;;;3.79;81.80;103031.81;4982131;28;20318;-85
2023/04/04 08:48:36;;;;;;;4.78;3.20;;;;;;;3.79;78.82;103031.81;4984916;28;20026;-85
2023/04/04 08:51:03;;;;;;;5.50;2.92;;;;;;;3.82;78.88;103034.47;4980304;28;20030;-85
2023/04/04 08:53:31;;;;;;;4.32;3.53;;;;;;;3.87;79.78;103038.88;4981486;28;20030;-85
2023/04/04 08:55:58;;;;;;;4.25;3.22;;;;;;;3.89;78.72;103024.25;4980581;28;20138;-85
2023/04/04 08:58:25;;;;;;;4.20;2.63;;;;;;;3.89;74.36;103042.38;4981303;28;20050;-85
2023/04/04 09:00:54;;;;;;;3.35;3.05;;;;;;;3.92;75.08;103045.06;4980745;28;20035;-85
2023/04/04 09:03:25;;;;;;;3.58;2.90;;;;;;;3.95;73.96;103038.22;4995899;28;20038;-85
2023/04/04 09:05:52;;;;;;;3.38;3.08;;;;;;;3.97;73.19;103031.34;4981114;28;20038;-85
2023/04/04 09:08:19;;;;;;;6.07;2.90;;;;;;;4.02;73.87;103039.22;4980987;28;20348;-86
2023/04/04 09:10:46;;;;;;;5.97;2.97;;;;;;;4.04;72.35;103035.81;4980671;28;20093;-86
2023/04/04 09:13:12;;;;;;;8.90;3.80;;;;;;;4.07;71.56;103035.00;4972444;28;20430;-85
2023/04/04 09:15:42;;;;;;;2.80;2.60;;;;;;;4.10;70.45;103032.50;4944122;29;20031;-85
2023/04/04 09:18:08;;;;;;;4.15;3.40;;;;;;;4.15;70.36;103038.66;4976692;28;20058;-85
2023/04/04 09:20:36;;;;;;;3.30;3.00;;;;;;;4.19;71.08;103039.59;4979201;28;20030;-86
2023/04/04 09:23:15;;;;;;;6.55;3.38;;;;;;;4.23;69.79;103037.06;4982383;28;20290;-86
2023/04/04 09:25:47;;;;;;;3.20;2.88;;;;;;;4.26;65.70;103035.38;4991559;28;20030;-85
2023/04/04 09:28:14;;;;;;;3.40;3.00;;;;;;;4.31;68.13;103033.78;4983458;28;20306;-85
2023/04/04 09:30:40;;;;;;;5.53;3.28;;;;;;;4.37;69.24;103024.41;4980386;28;20054;-85
2023/04/04 09:33:08;;;;;;;4.95;3.33;;;;;;;4.43;68.38;103031.44;4979595;28;20043;-86
2023/04/04 09:35:36;;;;;;;8.35;3.25;;;;;;;4.51;69.27;103032.47;4980208;28;20069;-85
2023/04/04 09:38:02;;;;;;;4.75;3.17;;;;;;;4.56;68.40;103030.81;4981870;28;20421;-85
2023/04/04 09:40:29;;;;;;;5.70;3.08;;;;;;;4.61;66.85;103034.38;4943882;29;20334;-85
2023/04/04 09:42:58;;;;;;;3.53;2.80;;;;;;;4.66;67.46;103034.47;4983866;28;20254;-85
2023/04/04 09:45:25;;;;;;;7.72;2.83;;;;;;;4.72;67.65;103038.91;4978957;28;20102;-85
2023/04/04 09:47:50;;;;;;;4.53;2.85;;;;;;;4.75;68.17;103039.84;4980848;28;20414;-85
2023/04/04 09:50:22;;;;;;;5.70;3.22;;;;;;;4.78;68.73;103034.72;4979117;28;20042;-85
2023/04/04 09:52:48;;;;;;;3.25;2.88;;;;;;;4.81;68.13;103039.09;4984558;28;20046;-86
2023/04/04 09:55:17;;;;;;;4.13;3.28;;;;;;;4.84;67.78;103033.06;4977968;28;20058;-85
2023/04/04 09:57:45;;;;;;;4.45;3.20;;;;;;;4.88;66.87;103034.88;4977591;28;20043;-85
2023/04/04 10:00:11;;;;;;;5.73;3.17;;;;;;;4.91;67.19;103033.22;4978567;28;20237;-85
2023/04/04 10:02:40;;;;;;;3.60;2.88;;;;;;;4.95;66.47;103028.97;4979864;28;20034;-85
2023/04/04 10:05:09;;;;;;;6.63;3.40;;;;;;;4.96;67.88;103031.56;4980255;28;20038;-85
2023/04/04 10:07:38;;;;;;;8.00;3.22;;;;;;;4.99;66.90;103029.03;4979217;28;20042;-85
2023/04/04 10:10:05;;;;;;;8.07;3.35;;;;;;;5.02;67.21;103027.31;4978665;28;20077;-86
2023/04/04 10:12:31;;;;;;;7.18;3.30;;;;;;;5.07;65.71;103033.47;4985716;28;20034;-85
2023/04/04 10:15:01;;;;;;;7.72;3.72;;;;;;;5.10;66.63;103029.22;4979355;28;20529;-85
2023/04/04 10:17:47;;;;;;;5.68;3.17;;;;;;;5.16;66.36;103020.66;4949988;28;20054;-86
2023/04/04 10:20:13;;;;;;;4.55;2.67;;;;;;;5.23;65.85;103024.22;4979263;28;20071;-85
2023/04/04 10:22:39;;;;;;;5.90;2.88;;;;;;;5.31;66.50;103025.22;4985751;28;20080;-86
2023/04/04 10:25:06;;;;;;;2.90;2.65;;;;;;;5.37;66.45;103023.59;4947180;28;20031;-85
2023/04/04 10:27:36;;;;;;;8.93;3.20;;;;;;;5.42;66.73;103023.69;4968947;28;20034;-85
2023/04/04 10:30:02;;;;;;;3.33;3.03;;;;;;;5.47;66.29;103019.41;4987543;28;20304;-86
2023/04/04 10:32:36;;;;;;;5.68;2.92;;;;;;;5.50;66.90;103022.06;4976428;28;20026;-85
2023/04/04 10:35:06;;;;;;;8.18;3.13;;;;;;;5.53;66.59;103021.22;4979158;28;20100;-85
2023/04/04 10:37:37;;;;;;;6.57;3.55;;;;;;;5.54;66.37;103010.00;4978204;28;20038;-85
2023/04/04 10:40:09;;;;;;;4.43;3.03;;;;;;;5.56;66.72;103009.16;4979822;28;20333;-85
2023/04/04 10:42:38;;;;;;;4.95;3.42;;;;;;;5.57;64.90;103017.84;4984665;28;20101;-86
2023/04/04 10:45:07;;;;;;;4.38;3.40;;;;;;;5.60;66.11;103006.59;4978827;28;20037;-85
2023/04/04 10:47:34;;;;;;;4.60;3.20;;;;;;;5.61;64.31;103000.56;4978859;28;20697;-85
2023/04/04 10:50:01;;;;;;;3.72;3.17;;;;;;;5.62;63.43;102995.41;4978470;28;20042;-86
2023/04/04 10:52:28;;;;;;;5.25;3.00;;;;;;;5.64;65.15;102996.28;4983359;28;20053;-86
2023/04/04 10:55:04;;;;;;;7.50;3.42;;;;;;;5.68;65.15;102994.59;4979497;28;20062;-86
2023/04/04 10:57:37;;;;;;;5.13;2.97;;;;;;;5.71;64.37;102997.22;4979288;28;20037;-85
2023/04/04 11:00:13;;;;;;;4.07;3.20;;;;;;;5.77;64.86;102989.53;4977929;28;20042;-86
2023/04/04 11:02:51;;;;;;;4.45;2.90;;;;;;;5.82;63.76;102980.06;4976832;28;20049;-86
2023/04/04 11:05:27;;;;;;;6.22;3.53;;;;;;;5.82;62.38;102990.47;4975189;28;20039;-86
2023/04/04 11:08:05;;;;;;;3.10;2.80;;;;;;;5.82;61.44;102974.88;4977294;28;20245;-86
2023/04/04 11:10:35;;;;;;;3.30;3.03;;;;;;;5.88;62.83;102976.69;4961390;28;20068;-86
2023/04/04 11:13:21;;;;;;;3.55;3.25;;;;;;;5.94;63.82;102972.41;4978574;28;20042;-86
2023/04/04 11:16:02;;;;;;;3.53;2.85;;;;;;;6.01;62.06;102975.13;4976250;28;20341;-85
2023/04/04 11:18:31;;;;;;;5.95;3.00;;;;;;;6.04;62.82;102973.44;4976887;28;20050;-85
2023/04/04 11:21:06;;;;;;;3.75;3.22;;;;;;;6.05;63.16;102967.38;4977664;28;20113;-85
2023/04/04 11:23:47;;;;;;;4.65;3.50;;;;;;;6.07;63.85;102957.00;4977811;28;20037;-86
2023/04/04 11:26:12;;;;;;;4.53;3.42;;;;;;;6.08;63.34;102954.41;4979075;28;20045;-85
2023/04/04 11:28:40;;;;;;;6.18;3.80;;;;;;;6.06;62.61;102953.53;4990767;28;20034;-85
2023/04/04 11:31:19;;;;;;;4.50;3.73;;;;;;;6.11;65.51;102953.56;4975141;28;20041;-85
2023/04/04 11:34:04;;;;;;;4.72;3.28;;;;;;;6.14;65.56;102954.47;4977421;28;20349;-86
2023/04/04 11:36:37;;;;;;;6.05;3.17;;;;;;;6.20;65.31;102945.00;4973154;28;20022;-86